createdAt,value
2023-02-08T00:02:01.152Z,-5.07
2023-02-08T00:04:27.572Z,-5.14
2023-02-08T00:06:53.994Z,-5.22
2023-02-08T00:09:20.417Z,-5.20
2023-02-08T00:11:46.870Z,-5.18
2023-02-08T00:14:13.323Z,-5.13
2023-02-08T00:16:39.887Z,-5.23
2023-02-08T00:19:06.415Z,-5.27
2023-02-08T00:21:32.892Z,-5.29
2023-02-08T00:23:59.304Z,-5.27
2023-02-08T00:26:25.851Z,-5.32
2023-02-08T00:28:52.345Z,-5.36
2023-02-08T00:31:18.878Z,-5.30
2023-02-08T00:33:45.411Z,-5.29
2023-02-08T00:36:12.567Z,-5.29
2023-02-08T00:38:39.081Z,-5.27
2023-02-08T00:41:05.950Z,-5.26
2023-02-08T00:43:32.420Z,-5.24
2023-02-08T00:46:00.241Z,-5.33
2023-02-08T00:48:27.878Z,-5.46
2023-02-08T00:51:08.814Z,-5.41
2023-02-08T00:53:37.969Z,-5.34
2023-02-08T00:56:04.888Z,-5.36
2023-02-08T00:58:31.300Z,-5.33
2023-02-08T01:00:57.832Z,-5.33
2023-02-08T01:03:24.815Z,-5.38
2023-02-08T01:05:51.598Z,-5.37
2023-02-08T01:08:20.425Z,-5.39
2023-02-08T01:10:47.423Z,-5.41
2023-02-08T01:13:13.870Z,-5.34
2023-02-08T01:15:40.415Z,-5.51
2023-02-08T01:18:06.850Z,-5.45
2023-02-08T01:20:36.129Z,-5.45
2023-02-08T01:23:03.632Z,-5.48
2023-02-08T01:25:30.324Z,-5.60
2023-02-08T01:27:57.359Z,-5.63
2023-02-08T01:30:24.146Z,-5.63
2023-02-08T01:32:50.629Z,-5.55
2023-02-08T01:35:17.179Z,-5.52
2023-02-08T01:37:43.606Z,-5.55
2023-02-08T01:40:10.744Z,-5.72
2023-02-08T01:42:37.315Z,-5.63
2023-02-08T01:45:22.971Z,-5.65
2023-02-08T01:47:55.067Z,-5.64
2023-02-08T01:50:27.516Z,-5.69
2023-02-08T01:52:54.136Z,-5.72
2023-02-08T01:55:34.223Z,-5.79
2023-02-08T01:58:06.391Z,-5.73
2023-02-08T02:00:33.116Z,-5.77
2023-02-08T02:03:01.829Z,-6.02
2023-02-08T02:09:38.684Z,-6.16
2023-02-08T02:12:07.669Z,-6.01
2023-02-08T02:14:35.367Z,-6.08
2023-02-08T02:17:01.874Z,-6.10
2023-02-08T02:19:31.154Z,-6.21
2023-02-08T02:22:36.052Z,-6.21
2023-02-08T02:25:30.339Z,-6.42
2023-02-08T02:28:33.259Z,-6.44
2023-02-08T02:31:15.362Z,-6.46
2023-02-08T02:33:50.960Z,-6.40
2023-02-08T02:36:33.193Z,-6.57
2023-02-08T02:39:05.574Z,-6.43
2023-02-08T02:42:06.356Z,-6.29
2023-02-08T02:44:57.276Z,-6.27
2023-02-08T02:47:41.107Z,-6.23
2023-02-08T02:50:21.190Z,-6.09
2023-02-08T02:52:56.786Z,-6.19
2023-02-08T02:55:25.896Z,-6.21
2023-02-08T02:57:54.649Z,-6.56
2023-02-08T03:00:25.734Z,-6.66
2023-02-08T03:02:53.273Z,-6.95
2023-02-08T03:05:19.771Z,-6.77
2023-02-08T03:08:03.814Z,-6.77
2023-02-08T03:11:02.266Z,-6.76
2023-02-08T03:13:38.576Z,-6.62
2023-02-08T03:16:28.486Z,-6.52
2023-02-08T03:19:03.615Z,-6.48
2023-02-08T03:21:56.818Z,-6.46
2023-02-08T03:24:40.289Z,-6.40
2023-02-08T03:27:16.497Z,-6.42
2023-02-08T03:29:53.642Z,-6.52
2023-02-08T03:32:41.923Z,-6.55
2023-02-08T03:35:19.875Z,-6.48
2023-02-08T03:40:27.347Z,-6.31
2023-02-08T03:42:58.583Z,-6.35
2023-02-08T03:45:49.746Z,-6.27
2023-02-08T03:48:20.271Z,-6.45
2023-02-08T03:50:51.575Z,-6.46
2023-02-08T03:53:22.056Z,-6.45
2023-02-08T03:55:53.193Z,-6.63
2023-02-08T03:58:28.321Z,-6.61
2023-02-08T04:01:11.540Z,-6.68
2023-02-08T04:03:39.067Z,-6.75
2023-02-08T04:06:05.849Z,-6.69
2023-02-08T04:08:32.312Z,-6.64
2023-02-08T04:10:58.947Z,-6.63
2023-02-08T04:13:25.412Z,-6.58
2023-02-08T04:15:51.928Z,-6.57
2023-02-08T04:18:18.393Z,-6.73
2023-02-08T04:20:44.880Z,-6.65
2023-02-08T04:23:11.352Z,-6.78
2023-02-08T04:25:37.847Z,-6.79
2023-02-08T04:28:04.567Z,-6.71
2023-02-08T04:30:31.088Z,-6.79
2023-02-08T04:32:59.973Z,-6.82
2023-02-08T04:35:26.523Z,-6.80
2023-02-08T04:37:52.951Z,-6.86
2023-02-08T04:40:19.568Z,-6.87
2023-02-08T04:45:21.274Z,-6.85
2023-02-08T04:47:47.770Z,-6.87
2023-02-08T04:50:14.726Z,-6.81
2023-02-08T04:52:41.301Z,-6.75
2023-02-08T04:55:08.268Z,-6.78
2023-02-08T04:57:34.772Z,-6.93
2023-02-08T05:00:01.312Z,-7.06
2023-02-08T05:02:27.828Z,-7.09
2023-02-08T07:28:45.533Z,-7.93
2023-02-08T07:31:14.680Z,-7.99
2023-02-08T07:33:41.987Z,-7.85
2023-02-08T07:36:09.042Z,-7.93
2023-02-08T07:38:35.497Z,-7.70
2023-02-08T07:41:08.577Z,-7.70
2023-02-08T07:43:36.136Z,-7.65
2023-02-08T07:46:07.969Z,-7.67
2023-02-08T07:48:35.250Z,-7.48
2023-02-08T07:51:02.549Z,-7.34
2023-02-08T07:53:29.715Z,-7.28
2023-02-08T07:55:56.188Z,-7.17
2023-02-08T07:58:23.487Z,-7.12
2023-02-08T08:00:49.987Z,-7.26
2023-02-08T08:03:16.682Z,-7.26
2023-02-08T09:52:39.341Z,-3.79
2023-02-08T09:55:34.902Z,-3.25
2023-02-08T09:58:05.368Z,-2.47
2023-02-08T10:17:02.831Z,-0.57
2023-02-08T10:19:59.553Z,-0.41
2023-02-08T10:22:34.768Z,-1.00
2023-02-08T10:25:16.226Z,-1.56
2023-02-08T10:28:21.351Z,-2.97
2023-02-08T10:30:53.615Z,-1.57
2023-02-08T10:33:41.826Z,-2.04
2023-02-08T10:36:21.474Z,-1.16
2023-02-08T10:38:53.036Z,-1.29
2023-02-08T10:41:22.092Z,-1.22
2023-02-08T10:44:20.780Z,-1.89
2023-02-08T10:46:50.167Z,-1.32
2023-02-08T10:49:25.411Z,-0.84
2023-02-08T10:51:53.609Z,-1.64
2023-02-08T10:54:20.073Z,-2.46
2023-02-08T10:56:52.761Z,-2.13
2023-02-08T10:59:27.453Z,-1.71
2023-02-08T11:01:54.689Z,-0.99
2023-02-08T11:04:21.467Z,-0.64
2023-02-08T11:06:50.151Z,-0.49
2023-02-08T11:09:29.338Z,-1.39
2023-02-08T11:11:58.585Z,-1.66
2023-02-08T11:14:46.804Z,-2.22
2023-02-08T11:17:30.673Z,-2.05
2023-02-08T11:19:59.002Z,-1.85
2023-02-08T11:22:30.958Z,-2.21
2023-02-08T11:25:03.979Z,-2.06
2023-02-08T11:27:34.234Z,-2.74
2023-02-08T11:30:13.080Z,-2.43
2023-02-08T11:32:41.522Z,-1.86
2023-02-08T11:35:23.075Z,-1.79
2023-02-08T11:37:51.731Z,-1.74
2023-02-08T11:40:31.592Z,-2.21
2023-02-08T11:42:58.804Z,-2.14
2023-02-08T11:45:29.850Z,-2.27
2023-02-08T15:17:29.495Z,-2.71
2023-02-08T15:19:56.270Z,-2.59
2023-02-08T15:22:25.860Z,-2.61
2023-02-08T15:24:54.878Z,-2.63
2023-02-08T15:46:25.078Z,-2.90
2023-02-08T15:56:55.257Z,-3.16
2023-02-08T15:59:28.062Z,-3.22
2023-02-08T16:01:57.628Z,-3.15
2023-02-08T16:04:25.755Z,-3.12
2023-02-08T16:06:57.528Z,-3.21
2023-02-08T16:12:06.198Z,-3.24
2023-02-08T16:14:50.594Z,-3.21
2023-02-08T16:17:44.374Z,-3.25
2023-02-08T16:20:33.796Z,-3.37
2023-02-08T16:23:03.955Z,-3.40
2023-02-08T16:25:37.135Z,-3.55
2023-02-08T16:28:05.896Z,-3.56
2023-02-08T16:30:32.894Z,-3.71
2023-02-08T16:33:06.848Z,-3.59
2023-02-08T16:35:33.592Z,-3.74
2023-02-08T16:40:51.344Z,-3.78
2023-02-08T16:43:22.794Z,-3.78
2023-02-08T16:46:28.136Z,-3.84
2023-02-08T16:48:56.405Z,-3.84
2023-02-08T16:51:27.364Z,-3.78
2023-02-08T16:53:56.610Z,-3.90
2023-02-08T16:56:24.076Z,-3.90
2023-02-08T16:58:50.617Z,-3.98
2023-02-08T17:01:17.222Z,-3.91
2023-02-08T17:03:43.857Z,-3.95
2023-02-08T17:06:33.534Z,-4.10
2023-02-08T17:09:01.578Z,-4.08
2023-02-08T17:11:28.964Z,-4.04
2023-02-08T17:13:56.126Z,-4.01
2023-02-08T17:16:25.074Z,-4.13
2023-02-08T17:18:52.025Z,-4.14
2023-02-08T17:21:18.622Z,-4.23
2023-02-08T17:23:45.917Z,-4.23
2023-02-08T17:26:27.723Z,-4.23
2023-02-08T17:28:56.375Z,-4.21
2023-02-08T17:31:23.526Z,-4.27
2023-02-08T17:33:50.233Z,-4.30
2023-02-08T17:36:17.513Z,-4.27
2023-02-08T17:38:46.499Z,-4.32
2023-02-08T17:41:15.545Z,-4.27
2023-02-08T17:43:41.997Z,-4.25
2023-02-08T17:46:13.288Z,-4.40
2023-02-08T17:48:40.004Z,-4.37
2023-02-08T17:51:10.408Z,-4.45
2023-02-08T17:53:40.676Z,-4.40
2023-02-08T17:56:10.170Z,-4.43
2023-02-08T17:58:37.661Z,-4.50
2023-02-08T18:01:04.801Z,-4.51
2023-02-08T18:03:31.523Z,-4.42
2023-02-08T18:06:01.302Z,-4.43
2023-02-08T18:08:28.131Z,-4.44
2023-02-08T18:10:54.660Z,-4.52
2023-02-08T18:13:21.103Z,-4.58
2023-02-08T18:15:48.600Z,-4.56
2023-02-08T18:18:15.592Z,-4.58
2023-02-08T18:20:46.394Z,-4.55
2023-02-08T18:23:13.595Z,-4.61
2023-02-08T18:25:41.468Z,-4.63
2023-02-08T18:30:43.820Z,-4.63
2023-02-08T18:33:10.762Z,-4.65
2023-02-08T18:35:37.805Z,-4.66
2023-02-08T18:38:04.531Z,-4.67
2023-02-08T18:40:32.271Z,-4.66
2023-02-08T18:42:58.855Z,-4.74
2023-02-08T18:45:25.410Z,-4.81
2023-02-08T18:47:51.929Z,-4.76
2023-02-08T18:50:18.527Z,-4.79
2023-02-08T18:52:44.960Z,-4.80
2023-02-08T18:55:11.419Z,-4.87
2023-02-08T18:57:39.884Z,-4.83
2023-02-08T19:00:07.243Z,-4.88
2023-02-08T19:02:33.917Z,-4.79
2023-02-08T19:05:00.348Z,-4.75
2023-02-08T19:07:26.823Z,-4.88
2023-02-08T19:09:54.132Z,-4.92
2023-02-08T19:12:21.406Z,-4.80
2023-02-08T19:14:51.029Z,-5.12
2023-02-08T19:17:18.089Z,-5.09
2023-02-08T19:19:44.890Z,-5.13
2023-02-08T19:22:11.686Z,-5.27
2023-02-08T19:24:39.045Z,-5.29
2023-02-08T19:27:05.672Z,-5.32
2023-02-08T19:29:34.433Z,-5.36
2023-02-08T19:32:01.620Z,-5.30
2023-02-08T19:34:28.192Z,-5.44
2023-02-08T19:36:55.278Z,-5.55
2023-02-08T19:39:25.095Z,-5.58
2023-02-08T19:41:52.832Z,-5.57
2023-02-08T19:44:20.413Z,-5.53
2023-02-08T19:46:56.892Z,-5.51
2023-02-08T19:49:25.669Z,-5.59
2023-02-08T19:51:52.374Z,-5.61
2023-02-08T19:54:19.543Z,-5.63
2023-02-08T19:56:46.872Z,-5.59
2023-02-08T19:59:23.140Z,-5.63
2023-02-08T20:01:50.317Z,-5.74
2023-02-08T20:04:16.886Z,-5.65
2023-02-08T20:06:45.181Z,-5.67
2023-02-08T20:09:15.116Z,-5.63
2023-02-08T20:11:55.883Z,-5.63
2023-02-08T20:14:23.724Z,-5.60
2023-02-08T20:16:50.274Z,-5.58
2023-02-08T20:19:16.740Z,-5.71
2023-02-08T20:21:45.240Z,-5.63
2023-02-08T20:24:11.952Z,-5.70
2023-02-08T20:26:41.272Z,-5.77
2023-02-08T20:29:09.017Z,-5.77
2023-02-08T20:31:37.975Z,-5.75
2023-02-08T20:34:07.162Z,-5.76
2023-02-08T20:36:47.710Z,-5.78
2023-02-08T20:39:19.434Z,-5.82
2023-02-08T20:41:47.406Z,-5.82
2023-02-08T20:44:16.849Z,-5.77
2023-02-08T20:46:44.402Z,-5.83
2023-02-08T20:49:13.959Z,-5.85
2023-02-08T20:51:40.573Z,-5.90
2023-02-08T20:54:07.039Z,-5.89
2023-02-08T20:56:35.777Z,-6.00
2023-02-08T20:59:07.227Z,-6.03
2023-02-08T21:01:35.076Z,-5.98
2023-02-08T21:04:02.508Z,-6.06
2023-02-08T21:06:34.798Z,-6.12
2023-02-08T21:09:13.357Z,-6.14
2023-02-08T21:11:40.252Z,-6.20
2023-02-08T21:14:07.668Z,-6.21
2023-02-08T21:16:34.331Z,-6.11
2023-02-08T21:19:00.834Z,-6.13
2023-02-08T21:21:28.095Z,-6.11
2023-02-08T21:23:56.764Z,-6.10
2023-02-08T21:26:24.309Z,-6.13
2023-02-08T21:28:56.221Z,-6.13
2023-02-08T21:31:25.157Z,-6.19
2023-02-08T21:33:52.574Z,-6.12
2023-02-08T21:36:23.661Z,-6.17
2023-02-08T21:38:50.416Z,-6.15
2023-02-08T21:41:22.841Z,-6.22
2023-02-08T21:43:51.049Z,-6.24
2023-02-08T21:46:17.857Z,-6.18
2023-02-08T21:49:03.367Z,-6.23
2023-02-08T21:51:48.056Z,-6.27
2023-02-08T21:54:36.026Z,-6.27
2023-02-08T21:57:04.380Z,-6.36
2023-02-08T21:59:37.110Z,-6.32
2023-02-08T22:02:08.330Z,-6.32
2023-02-08T22:04:36.694Z,-6.38
2023-02-08T22:07:07.025Z,-6.48
2023-02-08T22:09:35.883Z,-6.47
2023-02-08T22:12:02.525Z,-6.50
2023-02-08T22:14:29.040Z,-6.43
2023-02-08T22:16:55.501Z,-6.53
2023-02-08T22:19:22.042Z,-6.50
2023-02-08T22:21:48.471Z,-6.50
2023-02-08T22:24:14.969Z,-6.61
2023-02-08T22:26:41.537Z,-6.51
2023-02-08T22:29:08.000Z,-6.59
2023-02-08T22:31:34.583Z,-6.53
2023-02-08T22:34:01.165Z,-6.60
2023-02-08T22:36:27.638Z,-6.65
2023-02-08T22:38:54.235Z,-6.59
2023-02-08T22:41:20.898Z,-6.67
2023-02-08T22:43:48.461Z,-6.64
2023-02-08T22:46:15.180Z,-6.75
2023-02-08T22:48:42.225Z,-6.67
2023-02-08T22:51:11.312Z,-6.71
2023-02-08T22:53:38.162Z,-6.69
2023-02-08T22:56:06.185Z,-6.65
2023-02-08T22:58:32.836Z,-6.66
2023-02-08T23:00:59.660Z,-6.74
2023-02-08T23:03:26.251Z,-6.75
2023-02-08T23:05:53.377Z,-6.78
2023-02-08T23:08:21.429Z,-6.82
2023-02-08T23:10:48.217Z,-6.75
2023-02-08T23:13:14.709Z,-6.82
2023-02-08T23:15:43.846Z,-6.87
2023-02-08T23:18:10.787Z,-6.88
2023-02-08T23:20:39.351Z,-6.88
2023-02-08T23:23:05.855Z,-6.85
2023-02-08T23:25:32.991Z,-6.94
2023-02-08T23:27:59.527Z,-6.89
2023-02-08T23:30:26.083Z,-6.90
2023-02-08T23:32:52.608Z,-6.91
2023-02-08T23:35:19.062Z,-6.96
2023-02-08T23:37:45.631Z,-6.91
2023-02-08T23:40:12.357Z,-6.97
2023-02-08T23:42:38.966Z,-6.99
2023-02-08T23:45:06.281Z,-6.95
2023-02-08T23:47:33.071Z,-6.95
2023-02-08T23:49:59.687Z,-6.89
2023-02-08T23:52:26.315Z,-7.01
2023-02-08T23:54:52.830Z,-6.92
2023-02-08T23:57:19.525Z,-6.90
2023-02-08T23:59:46.045Z,-6.84
